Time;durP1;ratioP1;P1;durP2;ratioP2;P2;SDS_P1;SDS_P2;PMS_P1;PMS_P2;Temp;Humidity;BMP_temperature;BMP_pressure;BME280_temperature;BME280_humidity;BME280_pressure;Samples;Min_cycle;Max_cycle;Signal;HPM_P1;HPM_P2
2021/11/21 00:02:13;;;;;;;;;17.50;15.00;;;;;20.89;39.90;101253.50;5097272;27;45247;-58
2021/11/21 00:04:39;;;;;;;;;11.00;10.25;;;;;20.90;39.37;101257.84;5097854;27;45399;-57
2021/11/21 00:07:04;;;;;;;;;12.25;11.50;;;;;20.92;39.69;101258.63;5097042;27;47227;-58
2021/11/21 00:09:30;;;;;;;;;12.50;12.50;;;;;20.93;39.44;101246.31;5096970;27;45371;-58
2021/11/21 00:11:57;;;;;;;;;10.00;10.00;;;;;20.90;39.70;101236.78;5097099;27;45268;-58
2021/11/21 00:14:22;;;;;;;;;17.25;13.25;;;;;20.93;39.69;101236.63;5097131;27;45588;-59
2021/11/21 00:16:47;;;;;;;;;17.00;12.50;;;;;20.92;39.16;101237.53;5096866;27;45386;-55
2021/11/21 00:19:13;;;;;;;;;13.75;12.00;;;;;20.88;39.18;101219.34;5078320;27;45363;-58
2021/11/21 00:21:38;;;;;;;;;16.00;13.25;;;;;20.94;39.74;101234.84;5097300;27;45330;-57
2021/11/21 00:24:04;;;;;;;;;11.00;10.75;;;;;20.91;39.41;101220.03;5097252;27;45563;-55
2021/11/21 00:26:30;;;;;;;;;13.00;11.25;;;;;20.96;39.11;101227.69;5097024;27;45364;-52
2021/11/21 00:28:55;;;;;;;;;11.25;11.25;;;;;20.95;39.24;101224.22;5096599;27;45323;-53
2021/11/21 00:31:21;;;;;;;;;12.75;11.75;;;;;20.94;39.17;101219.88;5096883;27;45287;-50
2021/11/21 00:33:47;;;;;;;;;11.50;10.00;;;;;20.94;38.98;101219.88;5097182;27;45257;-55
2021/11/21 00:36:12;;;;;;;;;10.75;10.75;;;;;20.94;39.42;101214.63;5096765;27;46288;-48
2021/11/21 00:38:38;;;;;;;;;10.25;6.75;;;;;20.93;39.15;101217.34;5097066;27;45269;-50
2021/11/21 00:41:04;;;;;;;;;10.50;9.00;;;;;20.92;39.56;101211.19;5097206;27;45473;-44
2021/11/21 00:43:31;;;;;;;;;12.50;10.75;;;;;20.93;39.15;101207.63;5096911;27;45478;-52
2021/11/21 00:45:56;;;;;;;;;12.00;9.00;;;;;20.91;39.11;101204.22;5096395;27;45605;-50
2021/11/21 00:48:22;;;;;;;;;9.25;8.00;;;;;20.91;39.27;101190.22;5096976;27;45440;-53
2021/11/21 00:50:51;;;;;;;;;11.50;10.00;;;;;20.88;38.92;101193.88;5097022;27;45339;-50
2021/11/21 00:53:17;;;;;;;;;9.50;7.75;;;;;20.87;38.95;101191.28;5097232;27;45222;-51
2021/11/21 00:55:52;;;;;;;;;11.00;8.00;;;;;20.89;39.29;101200.81;5097183;27;46240;-50
2021/11/21 00:58:18;;;;;;;;;8.50;8.00;;;;;20.83;39.29;101183.56;5078577;27;45562;-52
2021/11/21 01:00:48;;;;;;;;;10.50;10.50;;;;;20.85;38.99;101183.47;5096914;27;45343;-47
2021/11/21 01:03:22;;;;;;;;;9.75;8.75;;;;;20.85;39.08;101184.31;5097009;27;45517;-49
2021/11/21 01:05:48;;;;;;;;;9.00;8.50;;;;;20.82;39.04;101178.34;5078220;27;46199;-45
2021/11/21 01:08:15;;;;;;;;;14.50;12.25;;;;;20.85;39.41;101188.75;5096843;27;45764;-44
2021/11/21 01:10:43;;;;;;;;;10.00;9.00;;;;;20.81;39.34;101177.50;5097201;27;45349;-43
2021/11/21 01:13:09;;;;;;;;;11.25;11.25;;;;;20.83;38.89;101185.34;5097134;27;45335;-49
2021/11/21 01:15:35;;;;;;;;;12.00;9.75;;;;;20.82;39.27;101175.72;5096577;27;46380;-59
2021/11/21 01:18:01;;;;;;;;;11.00;9.25;;;;;20.81;38.88;101185.41;5096680;27;45956;-56
2021/11/21 01:20:29;;;;;;;;;11.00;10.50;;;;;20.81;38.73;101192.44;5096550;27;45359;-56
2021/11/21 01:22:55;;;;;;;;;8.00;8.00;;;;;20.79;39.45;101182.00;5096865;27;45517;-58
2021/11/21 01:25:21;;;;;;;;;11.00;9.00;;;;;20.79;38.96;101186.41;5096517;27;46655;-55
2021/11/21 01:27:47;;;;;;;;;8.50;7.25;;;;;20.77;39.39;101180.38;5096536;27;45478;-56
2021/11/21 01:30:16;;;;;;;;;10.25;8.00;;;;;20.72;38.95;101172.69;5096988;27;45302;-51
2021/11/21 01:32:41;;;;;;;;;10.00;9.00;;;;;20.73;38.95;101173.53;5097060;27;45577;-57
2021/11/21 01:35:08;;;;;;;;;8.00;7.25;;;;;20.69;39.28;101164.94;5096180;27;46596;-56
2021/11/21 01:37:33;;;;;;;;;7.50;7.50;;;;;20.70;39.20;101171.91;5096557;27;45383;-58
2021/11/21 01:39:59;;;;;;;;;8.75;7.75;;;;;20.69;39.01;101173.69;5096526;27;45282;-55
2021/11/21 01:42:25;;;;;;;;;9.00;8.50;;;;;20.65;39.05;101166.88;5096686;27;45151;-52
2021/11/21 01:44:50;;;;;;;;;9.75;9.75;;;;;20.60;39.14;101163.59;5096317;27;46344;-58
2021/11/21 01:47:16;;;;;;;;;10.75;9.50;;;;;20.65;39.52;101168.63;5096274;27;45338;-43
2021/11/21 01:49:41;;;;;;;;;8.75;8.00;;;;;20.61;39.12;101161.84;5096735;27;45327;-51
2021/11/21 01:52:07;;;;;;;;;8.50;8.50;;;;;20.62;39.67;101164.38;5096606;27;45606;-58
2021/11/21 01:54:33;;;;;;;;;9.50;7.25;;;;;20.61;39.03;101167.13;5077685;27;48354;-52
2021/11/21 01:56:59;;;;;;;;;8.75;8.75;;;;;20.60;39.41;101160.97;5098997;27;45928;-57
2021/11/21 01:59:24;;;;;;;;;8.25;7.75;;;;;20.51;39.12;101151.75;5099711;27;45307;-57
2021/11/21 02:01:50;;;;;;;;;7.00;6.25;;;;;20.57;39.07;101158.50;5099744;27;45346;-54
2021/11/21 02:04:15;;;;;;;;;6.00;6.00;;;;;20.57;39.70;101153.22;5099786;27;46089;-59
2021/11/21 02:06:40;;;;;;;;;11.00;7.00;;;;;20.57;39.75;101157.66;5080931;27;45393;-52
2021/11/21 02:09:06;;;;;;;;;7.50;7.50;;;;;20.56;39.19;101156.78;5099663;27;45351;-60
2021/11/21 02:11:32;;;;;;;;;8.00;7.00;;;;;20.55;39.30;101157.75;5099625;27;45371;-57
2021/11/21 02:13:58;;;;;;;;;7.25;6.25;;;;;20.50;39.73;101142.19;5099348;27;45422;-58
2021/11/21 02:16:26;;;;;;;;;6.00;6.00;;;;;20.51;39.38;101146.47;5099380;27;45430;-59
2021/11/21 02:18:52;;;;;;;;;6.75;6.75;;;;;20.50;39.13;101147.44;5099457;27;45580;-59
2021/11/21 02:21:19;;;;;;;;;6.00;6.00;;;;;20.50;39.31;101144.81;5099532;27;45589;-54
2021/11/21 02:23:47;;;;;;;;;9.25;9.00;;;;;20.47;39.72;101141.44;5080601;27;46635;-43
2021/11/21 02:26:15;;;;;;;;;8.00;8.00;;;;;20.48;39.25;101132.63;5099232;27;45412;-44
2021/11/21 02:28:41;;;;;;;;;10.25;9.00;;;;;20.48;39.25;101132.63;5099239;27;45185;-46
2021/11/21 02:31:08;;;;;;;;;8.00;8.00;;;;;20.46;39.26;101121.31;5098560;27;45240;-53
2021/11/21 02:33:34;;;;;;;;;5.25;3.50;;;;;20.45;39.27;101122.28;5099050;27;47491;-43
2021/11/21 02:36:01;;;;;;;;;8.50;8.00;;;;;20.45;39.63;101120.47;5099060;27;45365;-50
2021/11/21 02:38:29;;;;;;;;;9.25;7.00;;;;;20.41;39.25;101123.34;5099262;27;45376;-51
2021/11/21 02:40:56;;;;;;;;;8.25;7.75;;;;;20.43;39.34;101118.84;5099300;27;45545;-56
2021/11/21 02:43:23;;;;;;;;;6.00;6.00;;;;;20.41;39.49;101118.91;5098878;27;45562;-58
2021/11/21 02:45:51;;;;;;;;;6.50;6.00;;;;;20.42;39.41;101118.00;5099067;27;45772;-52
2021/11/21 02:48:19;;;;;;;;;5.75;5.00;;;;;20.41;39.54;101112.81;5099297;27;45460;-55
2021/11/21 02:50:45;;;;;;;;;7.25;6.25;;;;;20.39;39.44;101111.09;5098707;27;45531;-51
2021/11/21 02:53:13;;;;;;;;;7.00;5.50;;;;;20.38;39.39;101109.41;5098814;27;45541;-52
2021/11/21 02:55:39;;;;;;;;;9.75;8.25;;;;;20.38;39.77;101109.41;5098666;27;45401;-49
2021/11/21 02:58:04;;;;;;;;;8.50;7.25;;;;;20.38;39.65;101106.78;5098681;27;45399;-46
2021/11/21 03:00:33;;;;;;;;;8.00;7.00;;;;;20.37;39.49;101099.78;5099074;27;45289;-56
2021/11/21 03:02:59;;;;;;;;;6.00;6.00;;;;;20.36;39.71;101084.94;5098515;27;45531;-55
2021/11/21 03:05:24;;;;;;;;;5.50;5.50;;;;;20.33;39.77;101076.34;5098804;27;45385;-53
2021/11/21 03:07:50;;;;;;;;;7.00;5.25;;;;;20.32;39.53;101075.50;5097717;27;45223;-53
2021/11/21 03:10:21;;;;;;;;;7.00;6.75;;;;;20.35;39.81;101077.13;5099223;27;45498;-52
2021/11/21 03:12:50;;;;;;;;;6.50;6.25;;;;;20.31;39.40;101068.53;5098532;27;45641;-57
2021/11/21 03:15:17;;;;;;;;;5.00;5.00;;;;;20.33;39.87;101074.56;5098792;27;45244;-53
2021/11/21 03:17:45;;;;;;;;;7.50;7.50;;;;;20.33;39.68;101068.44;5098692;27;45311;-52
2021/11/21 03:20:15;;;;;;;;;8.00;6.75;;;;;20.30;39.40;101058.06;5098698;27;45538;-45
2021/11/21 03:22:41;;;;;;;;;8.75;6.75;;;;;20.31;39.85;101058.00;5098180;27;46391;-46
2021/11/21 03:25:08;;;;;;;;;7.00;6.00;;;;;20.32;39.63;101053.56;5098256;27;45668;-54
2021/11/21 03:27:33;;;;;;;;;5.25;4.50;;;;;20.27;40.03;101048.56;5098352;27;45212;-53
2021/11/21 03:29:58;;;;;;;;;8.00;8.00;;;;;20.30;39.88;101051.03;5098520;27;45559;-57
2021/11/21 03:32:24;;;;;;;;;6.25;5.00;;;;;20.30;39.68;101060.69;5098278;27;46645;-54
2021/11/21 03:34:50;;;;;;;;;7.00;7.00;;;;;20.30;40.12;101050.16;5098227;27;45259;-56
2021/11/21 03:37:16;;;;;;;;;6.75;6.75;;;;;20.29;40.01;101051.09;5098215;27;45502;-59
2021/11/21 03:39:41;;;;;;;;;8.50;7.75;;;;;20.26;39.50;101052.09;5098430;27;45668;-56
2021/11/21 03:42:07;;;;;;;;;4.00;4.00;;;;;20.24;39.43;101049.56;5097867;27;45378;-55
2021/11/21 03:44:32;;;;;;;;;5.00;5.00;;;;;20.28;39.70;101058.16;5098016;27;45339;-58
2021/11/21 03:46:58;;;;;;;;;7.25;7.25;;;;;20.27;39.54;101048.56;5098096;27;45423;-57
2021/11/21 03:49:23;;;;;;;;;6.00;5.75;;;;;20.24;39.78;101051.31;5098148;27;45429;-58
2021/11/21 03:51:49;;;;;;;;;7.25;7.25;;;;;20.26;39.42;101046.84;5098065;27;46357;-58
2021/11/21 03:54:15;;;;;;;;;8.75;7.00;;;;;20.24;39.49;101046.06;5097972;27;45386;-58
2021/11/21 03:56:41;;;;;;;;;5.75;5.75;;;;;20.24;39.76;101044.31;5097835;27;45474;-55
2021/11/21 03:59:06;;;;;;;;;8.00;7.25;;;;;20.25;39.33;101042.50;5097981;27;45359;-49
2021/11/21 04:01:32;;;;;;;;;7.50;6.00;;;;;20.24;39.79;101046.06;5097662;27;45908;-56
2021/11/21 04:03:59;;;;;;;;;7.75;7.00;;;;;20.22;39.54;101048.78;5097682;27;45195;-53
2021/11/21 04:06:25;;;;;;;;;5.50;5.00;;;;;20.21;40.05;101049.72;5079628;27;45365;-59
2021/11/21 04:08:50;;;;;;;;;7.00;5.50;;;;;20.22;39.93;101053.22;5098034;27;45418;-58
2021/11/21 04:11:15;;;;;;;;;8.00;7.00;;;;;20.22;39.83;101047.94;5097638;27;45414;-51
2021/11/21 04:13:41;;;;;;;;;8.00;8.00;;;;;20.24;39.38;101043.44;5097635;27;45311;-60
2021/11/21 04:16:06;;;;;;;;;7.75;6.50;;;;;20.27;39.95;101037.19;5097666;27;45386;-52
2021/11/21 04:18:33;;;;;;;;;8.00;8.00;;;;;20.28;39.78;101036.25;5097657;27;45580;-48
2021/11/21 04:20:59;;;;;;;;;7.75;6.00;;;;;20.30;40.00;101040.50;5079189;27;45581;-46
2021/11/21 04:23:29;;;;;;;;;6.75;6.75;;;;;20.33;40.07;101032.47;5096967;27;45821;-42
2021/11/21 04:25:55;;;;;;;;;7.50;6.75;;;;;20.37;40.02;101033.97;5097738;27;45445;-48
2021/11/21 04:28:21;;;;;;;;;9.75;7.75;;;;;20.42;40.08;101023.22;5098173;27;45505;-49
2021/11/21 04:30:46;;;;;;;;;10.00;9.00;;;;;20.46;39.77;101019.50;5097273;27;46445;-46
2021/11/21 04:33:11;;;;;;;;;7.25;6.25;;;;;20.51;39.66;101024.53;5079052;27;45421;-54
2021/11/21 04:35:37;;;;;;;;;6.00;6.00;;;;;20.55;39.61;101018.19;5097379;27;45908;-52
2021/11/21 04:38:02;;;;;;;;;7.00;7.00;;;;;20.60;39.71;101021.41;5097578;27;45327;-49
2021/11/21 04:40:28;;;;;;;;;10.75;10.75;;;;;20.64;39.62;101017.69;5096964;27;46417;-50
2021/11/21 04:42:53;;;;;;;;;8.00;6.00;;;;;20.68;39.54;101007.84;5097404;27;45292;-47
2021/11/21 04:45:18;;;;;;;;;10.50;7.50;;;;;20.72;40.00;101006.75;5097355;27;45412;-42
2021/11/21 04:47:44;;;;;;;;;8.75;6.00;;;;;20.74;40.07;101001.41;5097320;27;45387;-42
2021/11/21 04:50:11;;;;;;;;;8.25;7.00;;;;;20.80;40.08;101003.72;5078792;27;47249;-42
2021/11/21 04:52:37;;;;;;;;;7.25;5.75;;;;;20.80;39.38;101001.06;5097047;27;45189;-47
2021/11/21 04:55:04;;;;;;;;;5.75;5.25;;;;;20.84;39.63;101000.81;5097107;27;45289;-43
2021/11/21 04:57:29;;;;;;;;;6.75;6.75;;;;;20.89;39.62;100997.94;5097197;27;45448;-42
2021/11/21 04:59:54;;;;;;;;;11.00;7.00;;;;;20.91;39.58;100993.44;5097153;27;45347;-41
2021/11/21 05:02:20;;;;;;;;;7.00;7.00;;;;;20.93;39.51;100993.38;5096964;27;45299;-49
2021/11/21 05:04:45;;;;;;;;;7.25;7.00;;;;;20.94;39.69;100981.91;5096962;27;45307;-43
2021/11/21 05:07:11;;;;;;;;;7.25;6.00;;;;;20.95;39.56;100984.44;5096857;27;45481;-48
2021/11/21 05:09:36;;;;;;;;;9.00;7.25;;;;;20.95;39.66;100975.69;5096588;27;46155;-44
2021/11/21 05:12:01;;;;;;;;;6.50;6.00;;;;;20.95;39.70;100973.03;5096732;27;45397;-44
2021/11/21 05:14:27;;;;;;;;;8.50;8.50;;;;;20.98;39.29;100976.38;5096851;27;45503;-51
2021/11/21 05:16:52;;;;;;;;;8.50;7.50;;;;;21.01;39.72;100980.63;5097221;27;45600;-54
2021/11/21 05:19:18;;;;;;;;;8.00;6.25;;;;;21.03;39.75;100972.63;5078237;27;46129;-47
2021/11/21 05:21:44;;;;;;;;;6.00;3.25;;;;;21.01;39.38;100963.03;5096520;27;45466;-49
2021/11/21 05:24:10;;;;;;;;;4.25;4.25;;;;;21.04;39.72;100971.69;5096747;27;45262;-53
2021/11/21 05:26:35;;;;;;;;;8.25;6.50;;;;;21.05;39.33;100969.00;5096780;27;45304;-50
2021/11/21 05:29:01;;;;;;;;;7.50;7.00;;;;;21.05;39.73;100973.41;5078407;27;45439;-49
2021/11/21 05:31:26;;;;;;;;;7.00;7.00;;;;;21.06;39.41;100977.75;5099166;27;45325;-56
2021/11/21 05:33:52;;;;;;;;;7.00;6.50;;;;;21.02;39.63;100966.53;5082298;27;45862;-54
2021/11/21 05:36:18;;;;;;;;;7.50;6.75;;;;;21.03;39.60;100964.72;5082091;27;45528;-51
2021/11/21 05:38:44;;;;;;;;;8.00;7.00;;;;;21.04;39.39;100969.94;5100001;27;45330;-55
2021/11/21 05:41:10;;;;;;;;;9.75;7.00;;;;;21.05;39.13;100968.13;5099835;27;45492;-56
2021/11/21 05:43:35;;;;;;;;;8.00;6.00;;;;;21.04;39.52;100961.16;5100114;27;45403;-43
2021/11/21 05:46:01;;;;;;;;;10.00;9.00;;;;;21.05;39.22;100962.84;5100173;27;45346;-46
2021/11/21 05:48:26;;;;;;;;;8.00;8.00;;;;;21.01;39.59;100968.28;5100188;27;46341;-59
2021/11/21 05:50:51;;;;;;;;;8.00;7.00;;;;;21.03;39.52;100965.59;5099960;27;45243;-53
2021/11/21 05:53:17;;;;;;;;;8.00;6.00;;;;;21.03;39.16;100956.81;5099873;27;45484;-52
2021/11/21 05:55:42;;;;;;;;;6.75;5.75;;;;;20.99;39.39;100943.84;5100025;27;45582;-55
2021/11/21 05:58:08;;;;;;;;;4.00;4.00;;;;;21.01;39.21;100947.22;5081392;27;48185;-53
2021/11/21 06:00:34;;;;;;;;;6.75;6.00;;;;;21.01;39.77;100949.00;5099529;27;45880;-56
2021/11/21 06:02:59;;;;;;;;;5.75;5.75;;;;;21.01;39.32;100957.75;5099705;27;45402;-55
2021/11/21 06:05:25;;;;;;;;;8.75;7.00;;;;;20.99;39.32;100962.28;5100159;27;45443;-53
2021/11/21 06:07:50;;;;;;;;;9.00;6.50;;;;;20.97;39.15;100950.97;5099346;27;45386;-48
2021/11/21 06:10:16;;;;;;;;;8.00;8.00;;;;;20.97;39.18;100945.69;5099522;27;45322;-54
2021/11/21 06:12:41;;;;;;;;;7.75;6.25;;;;;20.93;39.25;100936.25;5099584;27;45249;-45
2021/11/21 06:15:08;;;;;;;;;10.00;9.00;;;;;20.95;39.42;100937.03;5099791;27;45223;-49
2021/11/21 06:17:34;;;;;;;;;10.25;7.50;;;;;20.96;39.37;100941.38;5099350;27;45407;-55
2021/11/21 06:19:59;;;;;;;;;7.00;7.00;;;;;20.94;39.17;100940.59;5099298;27;45464;-43
2021/11/21 06:22:25;;;;;;;;;6.25;6.25;;;;;20.94;38.97;100940.59;5099811;27;45425;-54
2021/11/21 06:24:50;;;;;;;;;12.50;8.25;;;;;20.93;39.41;100944.16;5099527;27;45335;-52
2021/11/21 06:27:16;;;;;;;;;7.75;6.75;;;;;20.94;39.27;100945.03;5099147;27;45260;-47
2021/11/21 06:29:41;;;;;;;;;9.25;8.00;;;;;20.93;39.56;100941.53;5099184;27;45346;-57
2021/11/21 06:32:07;;;;;;;;;7.75;7.75;;;;;20.93;39.56;100935.41;5099190;27;45324;-54
2021/11/21 06:34:33;;;;;;;;;10.75;8.75;;;;;20.91;39.18;100935.47;5099381;27;45377;-50
2021/11/21 06:36:59;;;;;;;;;11.25;9.00;;;;;20.92;39.43;100933.72;5099134;27;45951;-53
2021/11/21 06:39:24;;;;;;;;;10.50;10.25;;;;;20.89;39.29;100934.72;5098961;27;45754;-49
2021/11/21 06:41:50;;;;;;;;;11.25;10.25;;;;;20.87;39.41;100931.34;5079671;27;45430;-57
2021/11/21 06:44:15;;;;;;;;;10.00;8.25;;;;;20.91;39.04;100930.22;5099049;27;45692;-50
2021/11/21 06:46:40;;;;;;;;;7.25;7.00;;;;;20.91;39.10;100930.22;5098785;27;46260;-54
2021/11/21 06:49:07;;;;;;;;;11.50;11.25;;;;;20.81;39.24;100927.25;5098858;27;45236;-56
2021/11/21 06:51:33;;;;;;;;;15.00;13.50;;;;;20.78;39.43;100934.47;5098870;27;45418;-52
2021/11/21 06:53:59;;;;;;;;;15.50;12.50;;;;;20.73;39.66;100931.22;5099193;27;45212;-49
2021/11/21 06:56:28;;;;;;;;;11.25;10.50;;;;;20.66;39.78;100931.56;5098488;27;45666;-59
2021/11/21 06:58:53;;;;;;;;;12.75;10.75;;;;;20.63;39.62;100930.84;5098471;27;45343;-55
2021/11/21 07:01:19;;;;;;;;;9.25;6.75;;;;;20.59;39.47;100932.81;5098608;27;45212;-58
2021/11/21 07:03:44;;;;;;;;;12.50;9.00;;;;;20.54;39.63;100938.31;5098733;27;45212;-56
2021/11/21 07:06:28;;;;;;;;;10.50;9.00;;;;;20.51;39.31;100938.47;5098121;27;48625;-56
2021/11/21 07:08:53;;;;;;;;;13.50;10.25;;;;;20.46;39.21;100934.38;5098328;27;45487;-53
2021/11/21 07:11:19;;;;;;;;;12.50;11.00;;;;;20.45;39.18;100938.81;5098536;27;45706;-54
2021/11/21 07:13:44;;;;;;;;;8.50;8.50;;;;;20.42;39.57;100927.59;5098702;27;45712;-50
2021/11/21 07:16:09;;;;;;;;;10.00;10.00;;;;;20.41;39.55;100925.91;5098272;27;45334;-56
2021/11/21 07:18:35;;;;;;;;;8.75;8.50;;;;;20.36;39.12;100929.63;5098301;27;45454;-54
2021/11/21 07:21:00;;;;;;;;;12.00;9.75;;;;;20.34;39.40;100930.63;5098631;27;45293;-57
2021/11/21 07:23:25;;;;;;;;;14.50;10.00;;;;;20.30;39.71;100931.72;5098264;27;45285;-51
2021/11/21 07:25:51;;;;;;;;;9.50;9.50;;;;;20.31;39.58;100938.69;5098004;27;47249;-57
2021/11/21 07:28:16;;;;;;;;;13.75;10.00;;;;;20.28;39.41;100931.81;5098179;27;45469;-53
2021/11/21 07:30:41;;;;;;;;;11.00;9.25;;;;;20.28;39.24;100929.19;5098284;27;45239;-57
2021/11/21 07:33:07;;;;;;;;;15.25;13.75;;;;;20.22;39.45;100930.34;5098321;27;45348;-54
2021/11/21 07:35:32;;;;;;;;;9.50;9.50;;;;;20.22;39.13;100921.63;5098223;27;45562;-56
2021/11/21 07:37:57;;;;;;;;;9.00;9.00;;;;;20.19;39.15;100924.41;5098024;27;45330;-49
2021/11/21 07:40:23;;;;;;;;;12.00;11.25;;;;;20.20;39.40;100923.47;5098221;27;45181;-55
2021/11/21 07:42:48;;;;;;;;;8.00;8.00;;;;;20.18;39.12;100914.81;5098160;27;45244;-56
2021/11/21 07:45:14;;;;;;;;;9.75;9.75;;;;;20.17;39.43;100913.09;5097841;27;46620;-58
2021/11/21 07:47:40;;;;;;;;;12.25;11.00;;;;;20.11;39.49;100914.28;5079635;27;45462;-57
2021/11/21 07:50:06;;;;;;;;;10.00;10.00;;;;;20.12;39.38;100915.16;5097987;27;45335;-58
2021/11/21 07:52:31;;;;;;;;;9.50;9.00;;;;;20.09;39.50;100910.88;5098322;27;45555;-48
2021/11/21 07:54:57;;;;;;;;;9.50;9.50;;;;;20.08;39.11;100904.78;5097249;27;46091;-56
2021/11/21 07:57:22;;;;;;;;;9.00;8.25;;;;;20.01;39.25;100906.00;5097639;27;45326;-54
2021/11/21 07:59:48;;;;;;;;;7.50;5.50;;;;;20.04;39.08;100923.44;5079451;27;45348;-50
2021/11/21 08:02:13;;;;;;;;;8.00;7.25;;;;;20.04;39.59;100924.25;5097803;27;45467;-45
2021/11/21 08:04:38;;;;;;;;;12.00;11.25;;;;;20.03;39.08;100925.19;5079159;27;47147;-53
2021/11/21 08:07:07;;;;;;;;;11.00;10.75;;;;;20.02;39.35;100925.28;5097777;27;45750;-45
2021/11/21 08:09:33;;;;;;;;;10.25;9.00;;;;;19.99;39.37;100926.31;5079797;27;45296;-54
2021/11/21 08:11:58;;;;;;;;;13.75;12.00;;;;;19.96;39.30;100915.06;5079442;27;45306;-57
2021/11/21 08:14:24;;;;;;;;;9.00;9.00;;;;;19.96;39.51;100923.81;5097478;27;45409;-55
2021/11/21 08:16:49;;;;;;;;;14.25;11.00;;;;;19.98;39.30;100918.47;5097449;27;45409;-52
2021/11/21 08:19:15;;;;;;;;;11.25;9.75;;;;;19.96;39.07;100915.06;5097650;27;45280;-57
2021/11/21 08:21:40;;;;;;;;;8.75;8.25;;;;;19.95;39.46;100908.97;5097623;27;45335;-57
2021/11/21 08:24:09;;;;;;;;;9.00;6.50;;;;;19.94;39.37;100917.78;5097418;27;45655;-43
2021/11/21 08:26:36;;;;;;;;;9.75;9.75;;;;;19.92;39.23;100917.00;5097487;27;45762;-54
2021/11/21 08:29:03;;;;;;;;;12.25;10.50;;;;;19.91;39.34;100915.31;5097745;27;45252;-53
2021/11/21 08:31:28;;;;;;;;;11.25;8.25;;;;;19.87;39.44;100919.03;5097384;27;45425;-56
2021/11/21 08:33:54;;;;;;;;;10.25;8.50;;;;;19.83;39.09;100909.56;5097047;27;46381;-57
2021/11/21 08:36:19;;;;;;;;;9.00;8.50;;;;;19.86;39.01;100918.16;5097151;27;45502;-54
2021/11/21 08:38:45;;;;;;;;;9.25;9.25;;;;;19.84;39.45;100908.63;5097178;27;45370;-52
2021/11/21 08:41:10;;;;;;;;;8.50;8.00;;;;;19.80;39.07;100914.97;5097240;27;45560;-57
2021/11/21 08:43:35;;;;;;;;;9.00;9.00;;;;;19.83;39.63;100914.81;5097151;27;45295;-54
2021/11/21 08:46:01;;;;;;;;;8.00;6.50;;;;;19.78;39.28;100907.16;5097024;27;45289;-58
2021/11/21 08:48:26;;;;;;;;;11.75;10.25;;;;;19.81;39.61;100914.91;5097061;27;45862;-49
2021/11/21 08:50:53;;;;;;;;;8.00;8.00;;;;;19.80;39.17;100909.72;5097301;27;45352;-58
2021/11/21 08:53:20;;;;;;;;;9.50;7.25;;;;;19.78;39.33;100913.28;5096850;27;45342;-57
2021/11/21 08:55:45;;;;;;;;;11.75;9.50;;;;;19.76;39.43;100904.63;5096781;27;45340;-55
2021/11/21 08:58:11;;;;;;;;;9.75;9.00;;;;;19.79;39.54;100908.88;5096953;27;45213;-58
2021/11/21 09:00:36;;;;;;;;;8.50;7.50;;;;;19.76;39.25;100899.38;5078993;27;45301;-51
2021/11/21 09:03:02;;;;;;;;;9.00;7.75;;;;;19.75;39.79;100902.06;5096609;27;46579;-53
2021/11/21 09:05:27;;;;;;;;;8.75;8.75;;;;;19.77;39.67;100906.31;5097637;27;45331;-58
2021/11/21 09:07:53;;;;;;;;;9.25;9.25;;;;;19.78;39.79;100901.91;5100505;27;45484;-58
2021/11/21 09:10:20;;;;;;;;;8.75;8.00;;;;;19.65;39.73;100888.53;5100628;27;45510;-51
2021/11/21 09:12:46;;;;;;;;;8.00;8.00;;;;;19.76;39.77;100915.16;5100370;27;46670;-52
2021/11/21 09:15:15;;;;;;;;;11.25;10.25;;;;;19.77;39.35;100911.59;5100252;27;45396;-58
2021/11/21 09:17:42;;;;;;;;;12.75;10.00;;;;;19.78;39.99;100901.91;5100502;27;45232;-51
2021/11/21 09:20:08;;;;;;;;;7.25;7.25;;;;;19.81;39.65;100895.63;5100830;27;45185;-49
2021/11/21 09:22:33;;;;;;;;;11.00;8.25;;;;;19.83;39.98;100899.03;5100227;27;46200;-45
2021/11/21 09:24:59;;;;;;;;;7.50;7.50;;;;;19.83;39.93;100886.75;5100044;27;45646;-54
2021/11/21 09:27:24;;;;;;;;;7.00;6.75;;;;;19.84;40.04;100879.69;5100201;27;45469;-56
2021/11/21 09:29:50;;;;;;;;;8.75;7.75;;;;;19.81;39.82;100878.09;5100300;27;45429;-52
2021/11/21 09:32:15;;;;;;;;;9.50;9.50;;;;;19.82;40.37;100886.81;5099958;27;45440;-60
2021/11/21 09:34:41;;;;;;;;;8.25;7.00;;;;;19.81;40.00;100887.75;5081418;27;45514;-58
2021/11/21 09:37:07;;;;;;;;;8.75;8.00;;;;;19.82;40.21;100902.59;5100341;27;45421;-59
2021/11/21 09:39:33;;;;;;;;;10.50;8.75;;;;;19.83;40.01;100899.91;5100060;27;45252;-57
2021/11/21 09:41:59;;;;;;;;;9.75;9.75;;;;;19.83;40.37;100904.28;5080487;27;46966;-47
2021/11/21 09:44:25;;;;;;;;;11.50;10.00;;;;;19.81;40.23;100916.66;5099872;27;45236;-53
2021/11/21 09:46:52;;;;;;;;;10.25;9.75;;;;;19.80;40.01;100914.97;5099804;27;45255;-47
2021/11/21 09:49:19;;;;;;;;;8.75;7.25;;;;;19.83;40.21;100925.34;5100048;27;45216;-52
2021/11/21 09:51:45;;;;;;;;;14.00;8.25;;;;;19.83;39.80;100917.44;5099544;27;45958;-56
2021/11/21 09:54:11;;;;;;;;;12.75;8.25;;;;;19.82;39.91;100907.84;5099342;27;45294;-53
2021/11/21 09:56:36;;;;;;;;;11.50;9.50;;;;;19.83;39.78;100914.81;5099095;27;45413;-48
2021/11/21 09:59:01;;;;;;;;;9.75;8.50;;;;;19.84;40.47;100908.63;5100071;27;45302;-54
2021/11/21 10:01:39;;;;;;;;;9.50;8.00;;;;;19.82;39.71;100903.47;5099330;27;45355;-52
2021/11/21 10:04:07;;;;;;;;;10.25;8.50;;;;;19.81;40.13;100906.16;5099552;27;45346;-54
2021/11/21 10:06:35;;;;;;;;;8.75;8.00;;;;;19.78;40.08;100902.78;5099629;27;45497;-59
2021/11/21 10:09:03;;;;;;;;;11.75;8.00;;;;;19.73;40.32;100899.50;5099693;27;45445;-60
2021/11/21 10:11:29;;;;;;;;;10.00;8.50;;;;;19.77;39.90;100906.31;5099167;27;46774;-58
2021/11/21 10:14:02;;;;;;;;;4.50;4.50;;;;;19.76;39.84;100898.50;5099410;27;45284;-54
2021/11/21 10:16:31;;;;;;;;;9.25;8.50;;;;;19.75;39.75;100895.03;5080713;27;45382;-59
2021/11/21 10:19:00;;;;;;;;;7.75;7.75;;;;;19.77;39.92;100894.94;5099585;27;45306;-57
2021/11/21 10:21:36;;;;;;;;;12.50;8.75;;;;;19.77;40.02;100889.69;5098617;27;47217;-58
2021/11/21 10:24:23;;;;;;;;;8.00;7.00;;;;;19.80;40.20;100883.41;5099325;27;45430;-43
2021/11/21 10:27:08;;;;;;;;;8.75;7.75;;;;;19.92;39.53;100883.69;5099310;27;45448;-43
2021/11/21 10:29:33;;;;;;;;;7.25;6.75;;;;;19.97;39.96;100878.16;5099147;27;45415;-42
2021/11/21 10:31:59;;;;;;;;;10.33;9.33;;;;;20.00;39.77;100885.91;5098787;27;46160;-42
2021/11/21 10:34:25;;;;;;;;;8.25;8.00;;;;;20.03;40.00;100891.00;5098910;27;45401;-43
2021/11/21 10:36:50;;;;;;;;;14.50;10.00;;;;;20.05;39.72;100888.31;5098850;27;45310;-43
2021/11/21 10:39:20;;;;;;;;;11.75;8.50;;;;;20.07;39.79;100884.66;5099336;27;45321;-43
2021/11/21 10:41:51;;;;;;;;;12.75;9.75;;;;;20.08;39.85;100881.09;5098564;27;47493;-43
2021/11/21 10:44:21;;;;;;;;;10.75;9.50;;;;;20.08;39.70;100881.09;5098903;27;45252;-43
2021/11/21 10:46:53;;;;;;;;;10.50;9.50;;;;;20.11;39.43;100884.50;5098819;27;45350;-43
2021/11/21 10:49:36;;;;;;;;;11.50;10.75;;;;;20.11;39.45;100863.44;5099000;27;45190;-42
2021/11/21 10:52:08;;;;;;;;;13.00;11.25;;;;;20.12;39.65;100867.78;5098555;27;47099;-44
2021/11/21 10:54:47;;;;;;;;;9.50;9.00;;;;;20.11;39.36;100866.06;5080390;27;45920;-43
2021/11/21 10:57:19;;;;;;;;;8.00;8.00;;;;;20.11;39.75;100871.34;5080643;27;45237;-46
2021/11/21 10:59:59;;;;;;;;;10.00;9.00;;;;;20.12;39.65;100870.41;5098778;27;45331;-44
2021/11/21 11:02:40;;;;;;;;;12.50;10.00;;;;;20.08;39.39;100861.81;5098483;27;45560;-43
2021/11/21 11:05:20;;;;;;;;;9.25;8.50;;;;;20.11;39.67;100868.72;5098586;27;46008;-44
2021/11/21 11:08:02;;;;;;;;;12.50;9.25;;;;;20.12;39.55;100867.78;5079925;27;45418;-42
2021/11/21 11:10:33;;;;;;;;;8.00;8.00;;;;;20.12;39.65;100867.78;5098611;27;45464;-43
2021/11/21 11:12:58;;;;;;;;;9.75;9.00;;;;;20.11;39.88;100866.91;5098555;27;45531;-43
2021/11/21 11:15:25;;;;;;;;;11.00;9.50;;;;;20.11;39.83;100866.91;5098315;27;45373;-42
2021/11/21 11:17:51;;;;;;;;;11.25;10.00;;;;;20.11;39.76;100860.81;5098459;27;45322;-50
2021/11/21 11:20:18;;;;;;;;;11.25;10.00;;;;;20.12;39.41;100863.34;5098499;27;45469;-44